createdAt,value
2017-12-02T00:00:36.185Z,0
2017-12-02T00:01:45.011Z,0
2017-12-02T00:02:53.841Z,0
2017-12-02T00:04:02.941Z,0
2017-12-02T00:05:12.038Z,0
2017-12-02T00:06:21.011Z,0
2017-12-02T00:07:29.836Z,0
2017-12-02T00:08:38.661Z,0
2017-12-02T00:09:47.483Z,0
2017-12-02T00:10:56.309Z,0
2017-12-02T00:12:05.283Z,0
2017-12-02T00:13:14.109Z,0
2017-12-02T00:14:23.206Z,0
2017-12-02T00:15:32.229Z,0
2017-12-02T00:16:41.057Z,0
2017-12-02T00:17:50.129Z,0
2017-12-02T00:18:58.967Z,0
2017-12-02T00:20:07.788Z,0
2017-12-02T00:21:16.614Z,0
2017-12-02T00:22:25.434Z,0
2017-12-02T00:23:34.557Z,0
2017-12-02T00:24:43.382Z,0
2017-12-02T00:25:52.203Z,0
2017-12-02T00:27:01.026Z,0
2017-12-02T00:28:09.851Z,0
2017-12-02T00:29:19.331Z,0
2017-12-02T00:30:28.154Z,0
2017-12-02T00:31:36.981Z,0
2017-12-02T00:32:46.081Z,0
2017-12-02T00:33:55.183Z,0
2017-12-02T00:35:04.309Z,0
2017-12-02T00:36:13.132Z,0
2017-12-02T00:37:21.958Z,0
2017-12-02T00:38:30.781Z,0
2017-12-02T00:39:39.881Z,0
2017-12-02T00:40:48.704Z,0
2017-12-02T00:41:57.531Z,0
2017-12-02T00:43:06.735Z,0
2017-12-02T00:44:15.573Z,0
2017-12-02T00:45:24.399Z,0
2017-12-02T00:46:33.373Z,0
2017-12-02T00:47:42.195Z,0
2017-12-02T00:48:51.021Z,0
2017-12-02T00:50:00.119Z,0
2017-12-02T00:51:08.944Z,0
2017-12-02T00:52:18.019Z,0
2017-12-02T00:53:26.843Z,0
2017-12-02T00:54:35.669Z,0
2017-12-02T00:55:44.491Z,0
2017-12-02T00:56:53.317Z,0
2017-12-02T00:58:02.145Z,0
2017-12-02T00:59:10.971Z,0
2017-12-02T01:00:19.794Z,0
2017-12-02T01:01:28.618Z,0
2017-12-02T01:02:37.443Z,0
2017-12-02T01:03:46.572Z,0
2017-12-02T01:04:55.391Z,0
2017-12-02T01:06:04.225Z,0
2017-12-02T01:07:13.044Z,0
2017-12-02T01:08:21.869Z,0
2017-12-02T01:09:30.694Z,0
2017-12-02T01:10:39.794Z,0
2017-12-02T01:11:48.617Z,0
2017-12-02T01:12:58.867Z,0
2017-12-02T01:14:07.692Z,0
2017-12-02T01:15:16.516Z,0
2017-12-02T01:16:25.342Z,0
2017-12-02T01:17:34.172Z,0
2017-12-02T01:18:42.990Z,0
2017-12-02T01:19:52.087Z,0
2017-12-02T01:21:01.186Z,0
2017-12-02T01:22:10.010Z,0
2017-12-02T01:23:18.834Z,0
2017-12-02T01:24:27.657Z,0
2017-12-02T01:25:36.481Z,0
2017-12-02T01:26:45.604Z,0
2017-12-02T01:27:54.428Z,0
2017-12-02T01:29:03.802Z,0
2017-12-02T01:30:12.902Z,0
2017-12-02T01:31:21.726Z,0
2017-12-02T01:32:30.926Z,0
2017-12-02T01:33:39.747Z,0
2017-12-02T01:34:48.571Z,0
2017-12-02T01:35:57.395Z,0
2017-12-02T01:37:06.218Z,0
2017-12-02T01:38:15.042Z,0
2017-12-02T01:39:23.866Z,0
2017-12-02T01:40:32.689Z,0
2017-12-02T01:41:41.512Z,0
2017-12-02T01:42:50.337Z,0
2017-12-02T01:43:59.462Z,0
2017-12-02T01:45:08.285Z,0
2017-12-02T01:46:17.107Z,0
2017-12-02T01:47:25.931Z,0
2017-12-02T01:48:34.755Z,0
2017-12-02T01:49:43.954Z,0
2017-12-02T01:50:52.778Z,0
2017-12-02T01:52:01.630Z,0
2017-12-02T01:53:10.731Z,0
2017-12-02T01:54:20.378Z,0
2017-12-02T01:55:29.351Z,0
2017-12-02T01:56:38.175Z,0
2017-12-02T01:57:47.002Z,0
2017-12-02T01:58:55.827Z,0
2017-12-02T02:00:04.650Z,0
2017-12-02T02:01:14.386Z,0
2017-12-02T02:02:23.211Z,0
2017-12-02T02:03:32.031Z,0
2017-12-02T02:04:40.855Z,0
2017-12-02T02:05:49.679Z,0
2017-12-02T02:06:58.806Z,0
2017-12-02T02:08:07.630Z,0
2017-12-02T02:09:17.008Z,0
2017-12-02T02:10:25.832Z,0
2017-12-02T02:11:34.661Z,0
2017-12-02T02:12:43.477Z,0
2017-12-02T02:13:52.299Z,0
2017-12-02T02:15:01.122Z,0
2017-12-02T02:16:09.949Z,0
2017-12-02T02:17:18.772Z,0
2017-12-02T02:18:27.594Z,0
2017-12-02T02:19:36.416Z,0
2017-12-02T02:20:45.241Z,0
2017-12-02T02:21:54.066Z,0
2017-12-02T02:23:02.892Z,0
2017-12-02T02:24:11.811Z,0
2017-12-02T02:25:20.632Z,0
2017-12-02T02:26:29.458Z,0
2017-12-02T02:27:38.556Z,0
2017-12-02T02:28:47.381Z,0
2017-12-02T02:29:56.203Z,0
2017-12-02T02:31:05.028Z,0
2017-12-02T02:32:13.853Z,0
2017-12-02T02:33:22.675Z,0
2017-12-02T02:34:31.775Z,0
2017-12-02T02:35:40.648Z,0
2017-12-02T02:36:49.471Z,0
2017-12-02T02:37:58.293Z,0
2017-12-02T02:39:07.121Z,0
2017-12-02T02:40:15.938Z,0
2017-12-02T02:41:24.761Z,0
2017-12-02T02:42:33.869Z,0
2017-12-02T02:43:42.967Z,0
2017-12-02T02:44:51.789Z,0
2017-12-02T02:46:00.612Z,0
2017-12-02T02:47:09.488Z,0
2017-12-02T02:48:18.311Z,0
2017-12-02T02:49:27.410Z,0
2017-12-02T02:50:36.234Z,0
2017-12-02T02:51:45.074Z,0
2017-12-02T02:52:54.331Z,0
2017-12-02T02:54:03.153Z,0
2017-12-02T02:55:11.974Z,0
2017-12-02T02:56:20.795Z,0
2017-12-02T02:57:29.620Z,0
2017-12-02T02:58:38.641Z,0
2017-12-02T02:59:47.466Z,0
2017-12-02T03:00:56.285Z,0
2017-12-02T03:02:05.110Z,0
2017-12-02T03:03:14.204Z,0
2017-12-02T03:04:23.128Z,0
2017-12-02T03:05:32.220Z,0
2017-12-02T03:06:41.043Z,0
2017-12-02T03:07:49.865Z,0
2017-12-02T03:08:58.687Z,0
2017-12-02T03:10:07.510Z,0
2017-12-02T03:11:16.332Z,0
2017-12-02T03:12:25.154Z,0
2017-12-02T03:13:33.978Z,0
2017-12-02T03:14:42.799Z,0
2017-12-02T03:15:51.921Z,0
2017-12-02T03:17:00.751Z,0
2017-12-02T03:18:09.570Z,0
2017-12-02T03:19:18.389Z,0
2017-12-02T03:20:27.212Z,0
2017-12-02T03:21:36.186Z,0
2017-12-02T03:22:45.008Z,0
2017-12-02T03:23:53.830Z,0
2017-12-02T03:25:02.654Z,0
2017-12-02T03:26:11.473Z,0
2017-12-02T03:27:20.596Z,0
2017-12-02T03:28:29.693Z,0
2017-12-02T03:29:38.517Z,0
2017-12-02T03:30:47.341Z,0
2017-12-02T03:31:56.162Z,0
2017-12-02T03:33:04.984Z,0
2017-12-02T03:34:13.803Z,0
2017-12-02T03:35:22.639Z,0
2017-12-02T03:36:31.453Z,0
2017-12-02T03:37:40.290Z,0
2017-12-02T03:38:49.163Z,0
2017-12-02T03:39:57.985Z,0
2017-12-02T03:41:06.906Z,0
2017-12-02T03:42:15.730Z,0
2017-12-02T03:43:24.553Z,0
2017-12-02T03:44:33.383Z,0
2017-12-02T03:45:42.204Z,0
2017-12-02T03:46:51.027Z,0
2017-12-02T03:47:59.847Z,0
2017-12-02T03:49:08.670Z,0
2017-12-02T03:50:18.074Z,0
2017-12-02T03:51:26.897Z,0
2017-12-02T03:52:35.721Z,0
2017-12-02T03:53:44.544Z,0
2017-12-02T03:54:53.369Z,0
2017-12-02T03:56:02.197Z,0
2017-12-02T03:57:11.019Z,0
2017-12-02T03:58:19.844Z,0
2017-12-02T03:59:28.663Z,0
2017-12-02T04:00:37.495Z,0
2017-12-02T04:01:46.309Z,0
2017-12-02T04:02:55.136Z,0
2017-12-02T04:04:03.963Z,0
2017-12-02T04:05:12.783Z,0
2017-12-02T04:06:21.607Z,0
2017-12-02T04:07:30.629Z,0
2017-12-02T04:08:39.455Z,0
2017-12-02T04:09:48.278Z,0
2017-12-02T04:10:57.099Z,0
2017-12-02T04:12:05.922Z,0
2017-12-02T04:13:15.020Z,0
2017-12-02T04:14:23.845Z,0
2017-12-02T04:15:33.139Z,0
2017-12-02T04:16:41.962Z,0
2017-12-02T04:17:50.781Z,0
2017-12-02T04:18:59.928Z,0
2017-12-02T04:20:08.750Z,0
2017-12-02T04:21:17.573Z,0
2017-12-02T04:22:26.770Z,0
2017-12-02T04:23:35.592Z,0
2017-12-02T04:24:44.719Z,0
2017-12-02T04:25:53.537Z,0
2017-12-02T04:27:02.635Z,0
2017-12-02T04:28:11.454Z,0
2017-12-02T04:29:20.276Z,0
2017-12-02T04:30:29.100Z,0
2017-12-02T04:31:37.921Z,0
2017-12-02T04:32:47.017Z,0
2017-12-02T04:33:55.838Z,0
2017-12-02T04:35:04.659Z,0
2017-12-02T04:36:13.784Z,0
2017-12-02T04:37:22.609Z,0
2017-12-02T04:38:31.430Z,0
2017-12-02T04:39:40.251Z,0
2017-12-02T04:40:49.075Z,0
2017-12-02T04:41:57.895Z,0
2017-12-02T04:43:06.874Z,0
2017-12-02T04:44:15.699Z,0
2017-12-02T04:45:24.520Z,0
2017-12-02T04:46:33.340Z,0
2017-12-02T04:47:42.435Z,0
2017-12-02T04:48:51.257Z,0
2017-12-02T04:50:00.083Z,0
2017-12-02T04:51:08.904Z,0
2017-12-02T04:52:17.726Z,0
2017-12-02T04:53:26.701Z,0
2017-12-02T04:54:35.517Z,0
2017-12-02T04:55:44.341Z,0
2017-12-02T04:56:53.159Z,0
2017-12-02T04:58:02.258Z,0
2017-12-02T04:59:11.227Z,0
2017-12-02T05:00:20.047Z,0
2017-12-02T05:01:28.872Z,0
2017-12-02T05:02:37.694Z,0
2017-12-02T05:03:46.515Z,0
2017-12-02T05:04:55.437Z,0
2017-12-02T05:06:04.259Z,0
2017-12-02T05:07:13.079Z,0
2017-12-02T05:08:21.903Z,0
2017-12-02T05:09:30.728Z,0
2017-12-02T05:10:39.696Z,0
2017-12-02T05:11:48.519Z,0
2017-12-02T05:12:57.619Z,0
2017-12-02T05:14:06.712Z,0
2017-12-02T05:15:15.812Z,0
2017-12-02T05:16:24.632Z,0
2017-12-02T05:17:33.455Z,0
2017-12-02T05:18:42.276Z,0
2017-12-02T05:19:51.098Z,0
2017-12-02T05:21:00.199Z,0
2017-12-02T05:22:09.069Z,0
2017-12-02T05:23:17.891Z,0
2017-12-02T05:24:26.713Z,0
2017-12-02T05:25:35.535Z,0
2017-12-02T05:26:44.910Z,0
2017-12-02T05:27:53.785Z,0
2017-12-02T05:29:02.883Z,0
2017-12-02T05:30:11.707Z,0
2017-12-02T05:31:21.075Z,0
2017-12-02T05:32:29.897Z,0
2017-12-02T05:33:38.720Z,0
2017-12-02T05:34:47.543Z,0
2017-12-02T05:35:56.920Z,0
2017-12-02T05:37:05.756Z,0
2017-12-02T05:38:14.579Z,0
2017-12-02T05:39:23.401Z,0
2017-12-02T05:40:32.223Z,0
2017-12-02T05:41:41.046Z,0
2017-12-02T05:42:49.869Z,0
2017-12-02T05:43:58.696Z,0
2017-12-02T05:45:07.518Z,0
2017-12-02T05:46:16.343Z,0
2017-12-02T05:47:25.163Z,0
2017-12-02T05:48:33.988Z,0
2017-12-02T05:49:42.815Z,0
2017-12-02T05:50:51.930Z,0
2017-12-02T05:52:00.753Z,0
2017-12-02T05:53:09.576Z,0
2017-12-02T05:54:18.397Z,0
2017-12-02T05:55:27.221Z,0
2017-12-02T05:56:36.044Z,0
2017-12-02T05:57:44.866Z,0
2017-12-02T05:58:53.689Z,0
2017-12-02T06:00:02.511Z,0
2017-12-02T06:01:11.333Z,0
2017-12-02T06:02:20.583Z,0
2017-12-02T06:03:29.406Z,0
2017-12-02T06:04:38.230Z,0
2017-12-02T06:05:47.052Z,0
2017-12-02T06:06:55.877Z,0
2017-12-02T06:08:04.798Z,0
2017-12-02T06:09:13.620Z,0
2017-12-02T06:10:22.442Z,0
2017-12-02T06:11:31.266Z,0
2017-12-02T06:12:40.087Z,0
2017-12-02T06:13:48.911Z,0
2017-12-02T06:14:57.737Z,0
2017-12-02T06:16:06.561Z,0
2017-12-02T06:17:15.386Z,0
2017-12-02T06:18:24.207Z,0
2017-12-02T06:19:33.031Z,0
2017-12-02T06:20:42.131Z,0
2017-12-02T06:21:50.959Z,0
2017-12-02T06:22:59.778Z,0
2017-12-02T06:24:08.602Z,0
2017-12-02T06:25:17.426Z,0
2017-12-02T06:26:26.249Z,0
2017-12-02T06:27:35.072Z,0
2017-12-02T06:28:43.896Z,0
2017-12-02T06:29:52.719Z,0
2017-12-02T06:31:01.547Z,0
2017-12-02T06:32:10.655Z,0
2017-12-02T06:33:19.477Z,0
2017-12-02T06:34:28.301Z,0
2017-12-02T06:35:37.127Z,0
2017-12-02T06:36:46.323Z,0
2017-12-02T06:37:55.147Z,0
2017-12-02T06:39:04.247Z,0
2017-12-02T06:40:13.071Z,0
2017-12-02T06:41:21.893Z,0
2017-12-02T06:42:31.143Z,0
2017-12-02T06:43:39.965Z,0
2017-12-02T06:44:48.788Z,0
2017-12-02T06:45:57.613Z,0
2017-12-02T06:47:06.438Z,0
2017-12-02T06:48:15.364Z,0
2017-12-02T06:49:24.467Z,0
2017-12-02T06:50:33.288Z,0
2017-12-02T06:51:42.110Z,0
2017-12-02T06:52:50.935Z,0
2017-12-02T06:54:00.130Z,0
2017-12-02T06:55:08.954Z,0
2017-12-02T06:56:17.777Z,0
2017-12-02T06:57:26.601Z,0
2017-12-02T06:58:35.425Z,0
2017-12-02T06:59:44.247Z,0
2017-12-02T07:00:53.070Z,0
2017-12-02T07:02:01.895Z,0
2017-12-02T07:03:10.720Z,0
2017-12-02T07:04:19.545Z,0
2017-12-02T07:05:28.369Z,0
2017-12-02T07:06:37.194Z,0
2017-12-02T07:07:46.022Z,0
2017-12-02T07:08:54.844Z,0
2017-12-02T07:10:03.672Z,0
2017-12-02T07:11:12.496Z,0
2017-12-02T07:12:21.322Z,0
2017-12-02T07:13:30.146Z,0
2017-12-02T07:14:38.967Z,0
2017-12-02T07:15:47.791Z,0
2017-12-02T07:16:56.914Z,0
2017-12-02T07:18:05.742Z,0
2017-12-02T07:19:14.566Z,0
2017-12-02T07:20:23.665Z,0
2017-12-02T07:21:32.486Z,0
2017-12-02T07:22:41.360Z,5
2017-12-02T07:23:50.186Z,5
2017-12-02T07:24:59.031Z,5
2017-12-02T07:26:07.857Z,5
2017-12-02T07:27:16.681Z,5
2017-12-02T07:28:25.656Z,5
2017-12-02T07:29:34.479Z,5
2017-12-02T07:30:43.303Z,5
2017-12-02T07:31:52.127Z,5
2017-12-02T07:33:00.951Z,5
2017-12-02T07:34:09.925Z,10
2017-12-02T07:35:19.021Z,10
2017-12-02T07:36:27.895Z,10
2017-12-02T07:37:36.722Z,10
2017-12-02T07:38:45.547Z,10
2017-12-02T07:39:54.472Z,10
2017-12-02T07:41:03.298Z,10
2017-12-02T07:42:12.129Z,10
2017-12-02T07:43:20.952Z,15
2017-12-02T07:44:29.777Z,15
2017-12-02T07:45:38.755Z,15
2017-12-02T07:46:47.579Z,15
2017-12-02T07:47:56.404Z,15
2017-12-02T07:49:05.232Z,20
2017-12-02T07:50:14.056Z,20
2017-12-02T07:51:23.043Z,20
2017-12-02T07:52:31.858Z,20
2017-12-02T07:53:40.685Z,25
2017-12-02T07:54:49.791Z,20
2017-12-02T07:55:58.613Z,20
2017-12-02T07:57:07.438Z,20
2017-12-02T07:58:16.262Z,25
2017-12-02T07:59:25.085Z,25
2017-12-02T08:00:33.910Z,25
2017-12-02T08:01:44.197Z,25
2017-12-02T08:02:57.512Z,25
2017-12-02T08:04:10.521Z,25
2017-12-02T08:05:22.180Z,25
2017-12-02T08:06:34.788Z,30
2017-12-02T08:07:47.326Z,35
2017-12-02T08:09:00.519Z,35
2017-12-02T08:10:10.127Z,35
2017-12-02T08:11:18.953Z,40
2017-12-02T08:12:27.777Z,40
2017-12-02T08:13:36.902Z,40
2017-12-02T08:14:45.729Z,40
2017-12-02T08:15:54.553Z,40
2017-12-02T08:17:03.377Z,45
2017-12-02T08:18:12.201Z,45
2017-12-02T08:19:21.026Z,40
2017-12-02T08:20:29.852Z,40
2017-12-02T08:21:38.733Z,40
2017-12-02T08:22:47.559Z,45
2017-12-02T08:23:56.387Z,45
2017-12-02T08:25:05.210Z,45
2017-12-02T08:26:14.034Z,50
2017-12-02T08:27:22.861Z,55
2017-12-02T08:28:31.686Z,55
2017-12-02T08:29:40.514Z,55
2017-12-02T08:30:49.339Z,50
2017-12-02T08:31:58.166Z,50
2017-12-02T08:33:06.992Z,50
2017-12-02T08:34:15.815Z,50
2017-12-02T08:35:24.641Z,50
2017-12-02T08:36:33.468Z,50
2017-12-02T08:37:42.287Z,55
2017-12-02T08:38:51.115Z,55
2017-12-02T08:39:59.958Z,55
2017-12-02T08:41:08.784Z,60
2017-12-02T08:42:17.710Z,55
2017-12-02T08:43:26.542Z,60
2017-12-02T08:44:35.924Z,60
2017-12-02T08:45:44.748Z,55
2017-12-02T08:46:53.573Z,50
2017-12-02T08:48:02.649Z,50
2017-12-02T08:49:11.472Z,55
2017-12-02T08:50:20.298Z,55
2017-12-02T08:51:29.683Z,55
2017-12-02T08:52:38.513Z,55
2017-12-02T08:53:47.707Z,55
2017-12-02T08:54:56.533Z,55
2017-12-02T08:56:05.358Z,55
2017-12-02T08:57:14.185Z,50
2017-12-02T08:58:23.010Z,50
2017-12-02T08:59:31.885Z,45
2017-12-02T09:00:40.716Z,50
2017-12-02T09:01:49.536Z,50
2017-12-02T09:02:58.638Z,55
2017-12-02T09:04:07.465Z,55
2017-12-02T09:05:16.289Z,55
2017-12-02T09:06:25.115Z,60
2017-12-02T09:07:33.942Z,60
2017-12-02T09:08:43.047Z,60
2017-12-02T09:09:51.874Z,60
2017-12-02T09:11:00.750Z,55
2017-12-02T09:12:09.577Z,55
2017-12-02T09:13:18.403Z,60
2017-12-02T09:14:27.230Z,60
2017-12-02T09:15:36.057Z,65
2017-12-02T09:16:44.882Z,65
2017-12-02T09:17:53.986Z,65
2017-12-02T09:19:02.809Z,65
2017-12-02T09:20:11.635Z,65
2017-12-02T09:21:20.461Z,60
2017-12-02T09:22:29.712Z,65
2017-12-02T09:23:38.537Z,70
2017-12-02T09:24:47.360Z,75
2017-12-02T09:25:56.186Z,75
2017-12-02T09:27:05.012Z,70
2017-12-02T09:28:13.853Z,65
2017-12-02T09:29:22.679Z,70
2017-12-02T09:30:31.506Z,65
2017-12-02T09:31:40.332Z,70
2017-12-02T09:32:49.429Z,70
2017-12-02T09:33:58.405Z,75
2017-12-02T09:35:07.231Z,80
2017-12-02T09:36:16.056Z,80
2017-12-02T09:37:24.883Z,80
2017-12-02T09:38:33.710Z,85
2017-12-02T09:39:42.535Z,80
2017-12-02T09:40:51.363Z,80
2017-12-02T09:42:00.187Z,80
2017-12-02T09:43:09.013Z,85
2017-12-02T09:44:17.840Z,85
2017-12-02T09:45:26.667Z,90
2017-12-02T09:46:35.500Z,90
2017-12-02T09:47:44.321Z,95
2017-12-02T09:48:53.147Z,105
2017-12-02T09:50:02.120Z,105
2017-12-02T09:51:10.949Z,105
2017-12-02T09:52:19.777Z,105
2017-12-02T09:53:28.603Z,105
2017-12-02T09:54:37.427Z,110
2017-12-02T09:55:46.252Z,110
2017-12-02T09:56:55.086Z,110
2017-12-02T09:58:03.916Z,110
2017-12-02T09:59:12.742Z,110
2017-12-02T10:00:21.841Z,100
2017-12-02T10:01:30.666Z,95
2017-12-02T10:02:39.495Z,90
2017-12-02T10:03:48.321Z,90
2017-12-02T10:04:57.146Z,85
2017-12-02T10:06:05.988Z,85
2017-12-02T10:07:14.815Z,90
2017-12-02T10:08:23.640Z,95
2017-12-02T10:09:32.467Z,95
2017-12-02T10:10:41.593Z,95
2017-12-02T10:11:50.418Z,95
2017-12-02T10:12:59.245Z,100
2017-12-02T10:14:08.073Z,100
2017-12-02T10:15:16.898Z,100
2017-12-02T10:16:26.047Z,105
2017-12-02T10:17:34.872Z,105
2017-12-02T10:18:43.980Z,105
2017-12-02T10:19:52.806Z,105
2017-12-02T10:21:01.631Z,100
2017-12-02T10:22:10.781Z,100
2017-12-02T10:23:19.606Z,100
2017-12-02T10:24:28.443Z,105
2017-12-02T10:25:37.284Z,100
2017-12-02T10:26:46.110Z,95
2017-12-02T10:27:55.086Z,95
2017-12-02T10:29:03.911Z,95
2017-12-02T10:30:12.737Z,100
2017-12-02T10:31:21.568Z,100
2017-12-02T10:32:30.394Z,100
2017-12-02T10:33:39.218Z,95
2017-12-02T10:34:48.047Z,95
2017-12-02T10:35:56.869Z,90
2017-12-02T10:37:05.973Z,85
2017-12-02T10:38:14.800Z,80
2017-12-02T10:39:23.628Z,80
2017-12-02T10:40:32.452Z,80
2017-12-02T10:41:41.275Z,85
2017-12-02T10:42:50.106Z,85
2017-12-02T10:43:58.928Z,90
2017-12-02T10:45:07.904Z,95
2017-12-02T10:46:16.731Z,105
2017-12-02T10:47:25.561Z,110
2017-12-02T10:48:34.385Z,105
2017-12-02T10:49:43.212Z,110
2017-12-02T10:50:52.040Z,125
2017-12-02T10:52:00.863Z,145
2017-12-02T10:53:09.693Z,130
2017-12-02T10:54:18.514Z,110
2017-12-02T10:55:27.342Z,110
2017-12-02T10:56:36.318Z,115
2017-12-02T10:57:45.145Z,115
2017-12-02T10:58:53.973Z,110
2017-12-02T11:00:03.077Z,110
2017-12-02T11:01:11.899Z,115
2017-12-02T11:02:21.027Z,125
2017-12-02T11:03:29.853Z,130
2017-12-02T11:04:38.678Z,120
2017-12-02T11:05:47.504Z,115
2017-12-02T11:06:56.329Z,115
2017-12-02T11:08:05.206Z,115
2017-12-02T11:09:14.034Z,115
2017-12-02T11:10:22.860Z,110
2017-12-02T11:11:31.688Z,115
2017-12-02T11:12:40.515Z,125
2017-12-02T11:13:49.644Z,135
2017-12-02T11:14:58.466Z,140
2017-12-02T11:16:07.292Z,135
2017-12-02T11:17:16.115Z,140
2017-12-02T11:18:24.941Z,150
2017-12-02T11:19:33.818Z,145
2017-12-02T11:20:42.642Z,150
2017-12-02T11:21:51.474Z,160
2017-12-02T11:23:00.299Z,155
2017-12-02T11:24:09.124Z,145
2017-12-02T11:25:18.100Z,145
2017-12-02T11:26:26.929Z,145
2017-12-02T11:27:35.754Z,150
2017-12-02T11:28:44.861Z,145
2017-12-02T11:29:53.691Z,150
2017-12-02T11:31:02.941Z,160
2017-12-02T11:32:11.765Z,155
2017-12-02T11:33:20.594Z,145
2017-12-02T11:34:29.420Z,140
2017-12-02T11:35:38.522Z,160
2017-12-02T11:36:47.347Z,150
2017-12-02T11:37:56.454Z,130
2017-12-02T11:39:05.279Z,125
2017-12-02T11:40:14.106Z,130
2017-12-02T11:41:22.934Z,120
2017-12-02T11:42:32.062Z,110
2017-12-02T11:43:40.885Z,120
2017-12-02T11:44:49.710Z,115
2017-12-02T11:45:58.538Z,120
2017-12-02T11:47:07.361Z,110
2017-12-02T11:48:16.436Z,110
2017-12-02T11:49:25.261Z,110
2017-12-02T11:50:34.084Z,105
2017-12-02T11:51:43.187Z,100
2017-12-02T11:52:52.011Z,95
2017-12-02T11:54:00.838Z,95
2017-12-02T11:55:09.665Z,95
2017-12-02T11:56:18.490Z,100
2017-12-02T11:57:27.594Z,105
2017-12-02T11:58:36.420Z,110
2017-12-02T11:59:45.549Z,110
2017-12-02T12:00:54.377Z,105
2017-12-02T12:02:03.203Z,110
2017-12-02T12:03:12.032Z,105
2017-12-02T12:04:20.859Z,105
2017-12-02T12:05:29.685Z,100
2017-12-02T12:06:38.513Z,100
2017-12-02T12:07:47.615Z,95
2017-12-02T12:08:56.443Z,95
2017-12-02T12:10:05.552Z,95
2017-12-02T12:11:14.806Z,95
2017-12-02T12:12:23.631Z,105
2017-12-02T12:13:32.457Z,110
2017-12-02T12:14:41.283Z,110
2017-12-02T12:15:50.111Z,110
2017-12-02T12:16:59.086Z,105
2017-12-02T12:18:07.912Z,110
2017-12-02T12:19:16.738Z,110
2017-12-02T12:20:25.568Z,115
2017-12-02T12:21:34.392Z,115
2017-12-02T12:22:43.217Z,125
2017-12-02T12:23:52.315Z,130
2017-12-02T12:25:01.140Z,120
2017-12-02T12:26:09.971Z,115
2017-12-02T12:27:18.796Z,115
2017-12-02T12:28:27.781Z,115
2017-12-02T12:29:36.607Z,120
2017-12-02T12:30:45.430Z,125
2017-12-02T12:31:54.258Z,105
2017-12-02T12:33:03.090Z,95
2017-12-02T12:34:12.115Z,95
2017-12-02T12:35:20.940Z,90
2017-12-02T12:36:29.765Z,85
2017-12-02T12:37:38.589Z,85
2017-12-02T12:38:47.414Z,90
2017-12-02T12:39:56.369Z,90
2017-12-02T12:41:05.201Z,95
2017-12-02T12:42:14.025Z,95
2017-12-02T12:43:22.850Z,95
2017-12-02T12:44:31.676Z,85
2017-12-02T12:45:40.503Z,85
2017-12-02T12:46:49.329Z,85
2017-12-02T12:47:58.431Z,95
2017-12-02T12:49:07.256Z,95
2017-12-02T12:50:16.093Z,95
2017-12-02T12:51:25.245Z,90
2017-12-02T12:52:34.070Z,85
2017-12-02T12:53:42.897Z,85
2017-12-02T12:54:51.999Z,85
2017-12-02T12:56:00.835Z,80
2017-12-02T12:57:10.087Z,75
2017-12-02T12:58:19.192Z,75
2017-12-02T12:59:28.299Z,75
2017-12-02T13:00:37.403Z,70
2017-12-02T13:01:46.228Z,65
2017-12-02T13:02:55.155Z,70
2017-12-02T13:04:03.983Z,75
2017-12-02T13:05:12.809Z,75
2017-12-02T13:06:21.911Z,80
2017-12-02T13:07:31.009Z,80
2017-12-02T13:08:40.110Z,75
2017-12-02T13:09:48.937Z,70
2017-12-02T13:10:57.760Z,65
2017-12-02T13:12:06.587Z,65
2017-12-02T13:13:15.413Z,70
2017-12-02T13:14:24.239Z,75
2017-12-02T13:15:33.066Z,75
2017-12-02T13:16:41.891Z,70
2017-12-02T13:17:50.716Z,75
2017-12-02T13:18:59.542Z,75
2017-12-02T13:20:08.667Z,70
2017-12-02T13:21:17.770Z,65
2017-12-02T13:22:26.605Z,65
2017-12-02T13:23:35.707Z,70
2017-12-02T13:24:44.539Z,65
2017-12-02T13:25:53.519Z,70
2017-12-02T13:27:02.620Z,75
2017-12-02T13:28:11.447Z,75
2017-12-02T13:29:20.270Z,70
2017-12-02T13:30:29.149Z,65
2017-12-02T13:31:38.224Z,65
2017-12-02T13:32:47.192Z,60
2017-12-02T13:33:56.017Z,60
2017-12-02T13:35:04.842Z,60
2017-12-02T13:36:13.667Z,60
2017-12-02T13:37:22.500Z,60
2017-12-02T13:38:31.598Z,55
2017-12-02T13:39:40.426Z,55
2017-12-02T13:40:49.253Z,55
2017-12-02T13:41:58.078Z,55
2017-12-02T13:43:07.040Z,60
2017-12-02T13:44:15.832Z,60
2017-12-02T13:45:24.659Z,65
2017-12-02T13:46:33.485Z,60
2017-12-02T13:47:42.317Z,70
2017-12-02T13:48:51.256Z,70
2017-12-02T13:50:00.367Z,70
2017-12-02T13:51:09.191Z,70
2017-12-02T13:52:18.023Z,65
2017-12-02T13:53:26.841Z,60
2017-12-02T13:54:35.667Z,55
2017-12-02T13:55:44.495Z,55
2017-12-02T13:56:53.325Z,50
2017-12-02T13:58:02.151Z,55
2017-12-02T13:59:11.252Z,50
2017-12-02T14:00:20.077Z,50
2017-12-02T14:01:28.904Z,50
2017-12-02T14:02:37.729Z,45
2017-12-02T14:03:46.835Z,45
2017-12-02T14:04:55.661Z,45
2017-12-02T14:06:04.587Z,45
2017-12-02T14:07:13.412Z,40
2017-12-02T14:08:22.235Z,40
2017-12-02T14:09:31.061Z,40
2017-12-02T14:10:39.891Z,40
2017-12-02T14:11:48.862Z,40
2017-12-02T14:12:57.688Z,35
2017-12-02T14:14:06.568Z,35
2017-12-02T14:15:15.343Z,35
2017-12-02T14:16:24.166Z,35
2017-12-02T14:17:33.141Z,30
2017-12-02T14:18:41.968Z,30
2017-12-02T14:19:51.066Z,30
2017-12-02T14:20:59.890Z,30
2017-12-02T14:22:08.995Z,30
2017-12-02T14:23:17.970Z,25
2017-12-02T14:24:26.793Z,30
2017-12-02T14:25:35.620Z,30
2017-12-02T14:26:44.446Z,25
2017-12-02T14:27:53.270Z,25
2017-12-02T14:29:02.100Z,25
2017-12-02T14:30:10.926Z,25
2017-12-02T14:31:19.754Z,25
2017-12-02T14:32:28.580Z,20
2017-12-02T14:33:37.410Z,25
2017-12-02T14:34:46.335Z,25
2017-12-02T14:35:55.434Z,25
2017-12-02T14:37:04.268Z,20
2017-12-02T14:38:13.088Z,20
2017-12-02T14:39:21.914Z,20
2017-12-02T14:40:30.889Z,20
2017-12-02T14:41:39.727Z,20
2017-12-02T14:42:48.553Z,15
2017-12-02T14:43:57.378Z,15
2017-12-02T14:45:06.203Z,15
2017-12-02T14:46:15.182Z,15
2017-12-02T14:47:24.007Z,15
2017-12-02T14:48:32.833Z,15
2017-12-02T14:49:41.660Z,10
2017-12-02T14:50:50.485Z,10
2017-12-02T14:51:59.410Z,10
2017-12-02T14:53:08.235Z,10
2017-12-02T14:54:17.064Z,10
2017-12-02T14:55:26.164Z,10
2017-12-02T14:56:34.990Z,10
2017-12-02T14:57:43.816Z,5
2017-12-02T14:58:52.640Z,5
2017-12-02T15:00:01.741Z,5
2017-12-02T15:01:10.839Z,5
2017-12-02T15:02:19.662Z,5
2017-12-02T15:03:28.635Z,5
2017-12-02T15:04:37.459Z,5
2017-12-02T15:05:46.292Z,5
2017-12-02T15:06:55.392Z,0
2017-12-02T15:08:04.218Z,0
2017-12-02T15:09:13.243Z,0
2017-12-02T15:10:22.067Z,0
2017-12-02T15:11:30.891Z,0
2017-12-02T15:12:39.717Z,0
2017-12-02T15:13:48.554Z,0
2017-12-02T15:14:57.513Z,0
2017-12-02T15:16:06.338Z,0
2017-12-02T15:17:15.441Z,0
2017-12-02T15:18:24.264Z,0
2017-12-02T15:19:33.090Z,0
2017-12-02T15:20:42.065Z,0
2017-12-02T15:21:50.891Z,0
2017-12-02T15:22:59.727Z,0
2017-12-02T15:24:08.559Z,0
2017-12-02T15:25:17.386Z,0
2017-12-02T15:26:26.688Z,0
2017-12-02T15:27:35.514Z,0
2017-12-02T15:28:44.342Z,0
2017-12-02T15:29:53.210Z,0
2017-12-02T15:31:01.989Z,0
2017-12-02T15:32:11.238Z,0
2017-12-02T15:33:20.015Z,0
2017-12-02T15:34:28.841Z,0
2017-12-02T15:35:37.670Z,0
2017-12-02T15:36:46.493Z,0
2017-12-02T15:37:55.621Z,0
2017-12-02T15:39:04.444Z,0
2017-12-02T15:40:13.268Z,0
2017-12-02T15:41:22.365Z,0
2017-12-02T15:42:31.190Z,0
2017-12-02T15:43:40.458Z,0
2017-12-02T15:44:49.274Z,0
2017-12-02T15:45:58.093Z,0
2017-12-02T15:47:07.192Z,0
2017-12-02T15:48:16.290Z,0
2017-12-02T15:49:25.273Z,0
2017-12-02T15:50:34.097Z,0
2017-12-02T15:51:42.921Z,0
2017-12-02T15:52:51.745Z,0
2017-12-02T15:54:00.570Z,0
2017-12-02T15:55:09.694Z,0
2017-12-02T15:56:18.797Z,0
2017-12-02T15:57:27.624Z,0
2017-12-02T15:58:36.446Z,0
2017-12-02T15:59:45.285Z,0
2017-12-02T16:00:54.265Z,0
2017-12-02T16:02:03.032Z,0
2017-12-02T16:03:11.862Z,0
2017-12-02T16:04:20.683Z,0
2017-12-02T16:05:29.505Z,0
2017-12-02T16:06:38.480Z,0
2017-12-02T16:07:47.305Z,0
2017-12-02T16:08:56.130Z,0
2017-12-02T16:10:04.980Z,0
2017-12-02T16:11:13.780Z,0
2017-12-02T16:12:22.606Z,0
2017-12-02T16:13:31.434Z,0
2017-12-02T16:14:40.253Z,0
2017-12-02T16:15:49.076Z,0
2017-12-02T16:16:57.901Z,0
2017-12-02T16:18:06.876Z,0
2017-12-02T16:19:15.702Z,0
2017-12-02T16:20:24.576Z,0
2017-12-02T16:21:33.398Z,0
2017-12-02T16:22:42.221Z,0
2017-12-02T16:23:51.346Z,0
2017-12-02T16:25:00.174Z,0
2017-12-02T16:26:09.275Z,0
2017-12-02T16:27:18.969Z,0
2017-12-02T16:28:27.793Z,0
2017-12-02T16:29:36.615Z,0
2017-12-02T16:30:45.440Z,0
2017-12-02T16:31:54.272Z,0
2017-12-02T16:33:03.092Z,0
2017-12-02T16:34:11.915Z,0
2017-12-02T16:35:20.737Z,0
2017-12-02T16:36:29.559Z,0
2017-12-02T16:37:38.659Z,0